createdAt,value
2022-12-04T00:01:36.101Z,74.59
2022-12-04T00:04:05.291Z,74.43
2022-12-04T00:06:34.593Z,74.47
2022-12-04T00:09:04.409Z,74.47
2022-12-04T00:11:34.236Z,74.63
2022-12-04T00:14:07.199Z,74.50
2022-12-04T00:16:36.978Z,74.88
2022-12-04T00:19:06.122Z,74.35
2022-12-04T00:21:35.194Z,74.25
2022-12-04T00:24:04.274Z,74.37
2022-12-04T00:26:33.302Z,74.69
2022-12-04T00:29:02.297Z,74.72
2022-12-04T00:31:32.226Z,74.43
2022-12-04T00:34:02.249Z,74.59
2022-12-04T00:36:31.331Z,74.39
2022-12-04T00:39:01.517Z,74.74
2022-12-04T00:41:32.580Z,74.54
2022-12-04T00:44:03.239Z,74.42
2022-12-04T00:46:32.192Z,74.60
2022-12-04T00:49:03.199Z,74.66
2022-12-04T00:51:32.173Z,74.54
2022-12-04T00:54:01.023Z,74.70
2022-12-04T00:56:30.607Z,74.54
2022-12-04T00:59:01.939Z,74.55
2022-12-04T01:01:32.378Z,74.81
2022-12-04T01:04:01.496Z,74.70
2022-12-04T01:06:34.900Z,74.67
2022-12-04T01:09:06.695Z,74.53
2022-12-04T01:11:35.720Z,74.77
2022-12-04T01:14:04.703Z,74.62
2022-12-04T01:16:38.624Z,74.79
2022-12-04T01:19:10.397Z,74.54
2022-12-04T01:21:40.041Z,74.48
2022-12-04T01:24:09.636Z,74.62
2022-12-04T01:26:38.599Z,74.56
2022-12-04T01:29:07.668Z,74.61
2022-12-04T01:31:37.071Z,74.50
2022-12-04T01:34:06.152Z,74.83
2022-12-04T01:36:34.982Z,74.52
2022-12-04T01:39:04.054Z,74.65
2022-12-04T01:41:33.547Z,74.80
2022-12-04T01:44:17.520Z,74.74
2022-12-04T01:46:51.017Z,74.79
2022-12-04T01:49:31.074Z,74.94
2022-12-04T01:52:22.255Z,75.02
2022-12-04T01:54:57.741Z,74.75
2022-12-04T01:57:31.864Z,75.13
2022-12-04T02:00:09.577Z,75.10
2022-12-04T02:02:41.916Z,75.16
2022-12-04T02:05:15.914Z,75.10
2022-12-04T02:07:47.907Z,75.06
2022-12-04T02:10:17.863Z,75.07
2022-12-04T02:12:51.736Z,75.03
2022-12-04T02:15:46.901Z,75.21
2022-12-04T02:19:08.650Z,75.03
2022-12-04T02:21:41.400Z,75.05
2022-12-04T02:24:26.228Z,75.22
2022-12-04T02:27:03.609Z,75.06
2022-12-04T02:29:53.582Z,74.93
2022-12-04T02:32:44.555Z,75.49
2022-12-04T02:35:28.712Z,75.32
2022-12-04T02:38:25.330Z,75.42
2022-12-04T02:41:02.865Z,74.99
2022-12-04T02:43:36.820Z,75.21
2022-12-04T02:46:17.530Z,75.01
2022-12-04T02:48:50.289Z,75.10
2022-12-04T02:51:24.291Z,75.14
2022-12-04T02:54:01.584Z,75.02
2022-12-04T02:56:35.413Z,75.09
2022-12-04T02:59:27.933Z,75.08
2022-12-04T03:02:02.599Z,75.12
2022-12-04T03:04:32.571Z,75.43
2022-12-04T03:07:17.811Z,75.18
2022-12-04T03:09:52.289Z,75.15
2022-12-04T03:12:47.887Z,75.39
2022-12-04T03:15:25.192Z,75.41
2022-12-04T03:18:02.397Z,75.52
2022-12-04T03:20:34.592Z,75.50
2022-12-04T03:23:30.369Z,75.32
2022-12-04T03:26:22.238Z,75.43
2022-12-04T03:29:08.479Z,75.75
2022-12-04T03:31:57.157Z,75.80
2022-12-04T03:34:33.590Z,75.69
2022-12-04T03:37:14.280Z,75.65
2022-12-04T03:40:21.024Z,75.83
2022-12-04T03:43:01.580Z,75.55
2022-12-04T03:45:49.399Z,75.60
2022-12-04T03:48:42.496Z,75.85
2022-12-04T03:51:17.860Z,75.59
2022-12-04T03:53:51.233Z,75.90
2022-12-04T03:56:25.503Z,76.04
2022-12-04T03:58:59.592Z,75.75
2022-12-04T04:01:36.942Z,76.14
2022-12-04T04:04:11.107Z,75.74
2022-12-04T04:06:58.117Z,75.93
2022-12-04T04:09:31.668Z,76.23
2022-12-04T04:12:07.494Z,75.83
2022-12-04T04:14:54.862Z,75.85
2022-12-04T04:17:52.230Z,76.33
2022-12-04T04:20:45.688Z,76.35
2022-12-04T04:23:37.118Z,76.02
2022-12-04T04:26:07.982Z,76.17
2022-12-04T04:28:39.997Z,76.59
2022-12-04T04:31:26.955Z,76.65
2022-12-04T04:34:14.887Z,76.29
2022-12-04T04:37:07.587Z,76.45
2022-12-04T04:39:39.837Z,76.14
2022-12-04T04:42:20.691Z,76.21
2022-12-04T04:45:19.635Z,76.36
2022-12-04T04:48:12.462Z,76.58
2022-12-04T04:50:42.709Z,76.51
2022-12-04T04:53:18.432Z,76.34
2022-12-04T04:55:47.811Z,76.68
2022-12-04T04:58:19.596Z,76.49
2022-12-04T05:01:00.523Z,76.72
2022-12-04T05:03:30.803Z,76.64
2022-12-04T05:05:59.909Z,76.77
2022-12-04T05:08:28.793Z,76.94
2022-12-04T05:10:57.661Z,76.61
2022-12-04T05:13:29.905Z,76.62
2022-12-04T05:16:05.111Z,76.64
2022-12-04T05:18:35.771Z,76.95
2022-12-04T05:21:19.249Z,76.89
2022-12-04T05:23:48.131Z,76.39
2022-12-04T05:26:17.057Z,76.67
2022-12-04T05:28:46.016Z,77.03
2022-12-04T05:31:14.894Z,76.90
2022-12-04T05:33:43.772Z,76.74
2022-12-04T05:36:13.972Z,77.19
2022-12-04T05:38:42.877Z,77.06
2022-12-04T05:41:11.772Z,76.82
2022-12-04T05:43:40.660Z,76.63
2022-12-04T05:46:11.336Z,76.90
2022-12-04T05:48:40.398Z,77.00
2022-12-04T05:51:11.200Z,76.93
2022-12-04T05:53:40.130Z,76.61
2022-12-04T05:56:09.513Z,76.95
2022-12-04T05:58:39.371Z,76.68
2022-12-04T06:01:14.305Z,76.97
2022-12-04T06:03:43.535Z,77.18
2022-12-04T06:06:21.900Z,77.10
2022-12-04T06:08:53.724Z,77.06
2022-12-04T06:11:29.884Z,76.91
2022-12-04T06:14:01.149Z,77.35
2022-12-04T06:16:32.701Z,77.65
2022-12-04T06:19:05.482Z,77.31
2022-12-04T06:21:36.928Z,77.46
2022-12-04T06:24:06.724Z,77.22
2022-12-04T06:26:35.895Z,77.48
2022-12-04T06:29:05.154Z,76.88
2022-12-04T06:31:36.732Z,77.05
2022-12-04T06:34:06.526Z,77.16
2022-12-04T06:36:36.221Z,77.04
2022-12-04T06:39:05.744Z,77.19
2022-12-04T06:41:34.686Z,77.03
2022-12-04T06:44:03.510Z,77.18
2022-12-04T06:46:34.410Z,77.03
2022-12-04T06:49:03.960Z,77.09
2022-12-04T06:51:36.203Z,77.30
2022-12-04T06:54:05.846Z,77.26
2022-12-04T06:56:35.608Z,76.99
2022-12-04T06:59:05.384Z,76.93
2022-12-04T07:01:36.040Z,77.20
2022-12-04T07:04:05.311Z,77.31
2022-12-04T07:06:38.030Z,77.28
2022-12-04T07:09:12.854Z,77.27
2022-12-04T07:11:43.140Z,77.34
2022-12-04T07:14:14.005Z,77.08
2022-12-04T07:16:43.688Z,76.96
2022-12-04T07:19:14.725Z,76.97
2022-12-04T07:21:44.284Z,77.06
2022-12-04T07:24:17.781Z,77.00
2022-12-04T07:26:47.248Z,77.40
2022-12-04T07:29:16.111Z,77.41
2022-12-04T07:31:45.078Z,77.34
2022-12-04T07:34:14.290Z,77.58
2022-12-04T07:36:43.199Z,76.83
2022-12-04T07:39:12.057Z,77.23
2022-12-04T07:41:41.135Z,77.13
2022-12-04T07:44:10.601Z,77.47
2022-12-04T07:46:39.512Z,77.06
2022-12-04T07:49:08.485Z,77.27
2022-12-04T07:51:37.397Z,77.01
2022-12-04T07:54:06.572Z,77.36
2022-12-04T07:56:35.712Z,77.21
2022-12-04T07:59:04.919Z,77.15
2022-12-04T08:01:34.303Z,76.80
2022-12-04T08:04:05.132Z,76.88
2022-12-04T08:06:35.916Z,77.09
2022-12-04T08:09:10.237Z,77.08
2022-12-04T08:11:39.863Z,77.24
2022-12-04T08:14:11.545Z,76.98
2022-12-04T08:16:40.524Z,77.02
2022-12-04T08:19:09.528Z,77.01
2022-12-04T08:21:38.697Z,77.21
2022-12-04T08:24:07.881Z,77.04
2022-12-04T08:26:36.989Z,77.05
2022-12-04T08:29:07.267Z,77.22
2022-12-04T08:31:37.679Z,77.02
2022-12-04T08:34:08.311Z,77.13
2022-12-04T08:36:37.304Z,77.17
2022-12-04T08:39:06.739Z,77.14
2022-12-04T08:41:35.733Z,77.09
2022-12-04T08:44:04.749Z,77.08
2022-12-04T08:46:34.500Z,76.92
2022-12-04T08:49:05.016Z,77.14
2022-12-04T08:51:37.539Z,77.05
2022-12-04T08:54:10.428Z,77.27
2022-12-04T08:56:39.503Z,77.11
2022-12-04T08:59:08.741Z,77.19
2022-12-04T09:01:38.829Z,76.91
2022-12-04T09:04:07.878Z,77.07
2022-12-04T09:06:37.111Z,77.21
2022-12-04T09:09:06.187Z,76.82
2022-12-04T09:11:35.139Z,77.09
2022-12-04T09:14:04.587Z,77.03
2022-12-04T09:16:33.798Z,77.08
2022-12-04T09:19:02.898Z,77.30
2022-12-04T09:21:32.078Z,77.04
2022-12-04T09:24:01.127Z,76.92
2022-12-04T09:26:32.522Z,77.29
2022-12-04T09:29:03.385Z,76.94
2022-12-04T09:31:33.476Z,77.23
2022-12-04T09:34:03.189Z,77.59
2022-12-04T09:36:32.569Z,77.28
2022-12-04T09:39:01.515Z,77.13
2022-12-04T09:41:52.234Z,77.28
2022-12-04T09:44:40.428Z,77.12
2022-12-04T09:47:41.006Z,77.36
2022-12-04T09:50:21.712Z,76.97
2022-12-04T09:53:02.087Z,77.10
2022-12-04T09:56:01.552Z,77.38
2022-12-04T09:58:42.043Z,77.05
2022-12-04T10:01:25.366Z,77.50
2022-12-04T10:04:00.001Z,77.17
2022-12-04T10:06:44.522Z,77.51
2022-12-04T10:09:20.358Z,77.16
2022-12-04T10:12:10.642Z,77.50
2022-12-04T10:15:20.248Z,77.41
2022-12-04T10:18:27.424Z,77.44
2022-12-04T10:21:47.417Z,77.67
2022-12-04T10:24:40.833Z,77.37
2022-12-04T10:27:28.540Z,77.28
2022-12-04T10:30:21.873Z,77.33
2022-12-04T10:33:11.243Z,77.24
2022-12-04T10:35:44.521Z,76.98
2022-12-04T10:38:39.032Z,77.17
2022-12-04T10:41:32.296Z,77.10
2022-12-04T10:44:01.674Z,77.08
2022-12-04T10:46:36.633Z,77.10
2022-12-04T10:49:14.972Z,77.07
2022-12-04T10:51:45.227Z,77.14
2022-12-04T10:54:33.366Z,77.20
2022-12-04T10:57:14.552Z,76.87
2022-12-04T10:59:55.774Z,77.11
2022-12-04T11:02:35.293Z,77.06
2022-12-04T11:05:08.328Z,76.86
2022-12-04T11:07:47.665Z,77.14
2022-12-04T11:10:34.780Z,77.13
2022-12-04T11:13:10.235Z,77.02
2022-12-04T11:15:48.160Z,77.04
2022-12-04T11:18:29.995Z,77.16
2022-12-04T11:21:06.798Z,76.97
2022-12-04T11:23:46.247Z,76.68
2022-12-04T11:26:38.548Z,76.87
2022-12-04T11:29:14.330Z,76.82
2022-12-04T11:31:49.544Z,77.15
2022-12-04T11:34:22.053Z,76.80
2022-12-04T11:36:55.596Z,77.04
2022-12-04T11:39:43.018Z,77.04
2022-12-04T11:42:15.627Z,76.79
2022-12-04T11:45:00.140Z,76.73
2022-12-04T11:47:34.905Z,76.91
2022-12-04T11:50:38.910Z,76.71
2022-12-04T11:53:13.755Z,76.95
2022-12-04T11:55:45.710Z,76.99
2022-12-04T11:58:48.848Z,77.05
2022-12-04T12:02:03.760Z,77.04
2022-12-04T12:04:41.956Z,76.99
2022-12-04T12:07:20.133Z,77.16
2022-12-04T12:10:20.459Z,77.09
2022-12-04T12:13:14.400Z,76.70
2022-12-04T12:15:57.564Z,77.32
2022-12-04T12:18:47.629Z,77.13
2022-12-04T12:21:28.228Z,77.09
2022-12-04T12:24:22.283Z,76.84
2022-12-04T12:27:16.675Z,76.89
2022-12-04T12:30:07.673Z,77.09
2022-12-04T12:33:00.867Z,76.86
2022-12-04T12:36:09.235Z,77.53
2022-12-04T12:39:01.137Z,77.22
2022-12-04T12:41:40.770Z,76.73
2022-12-04T12:44:18.779Z,77.08
2022-12-04T12:47:01.194Z,77.35
2022-12-04T12:49:56.581Z,77.17
2022-12-04T12:52:33.478Z,77.09
2022-12-04T12:55:16.958Z,76.78
2022-12-04T12:57:53.618Z,77.27
2022-12-04T13:00:25.325Z,77.36
2022-12-04T13:03:44.025Z,77.26
2022-12-04T13:06:21.639Z,76.95
2022-12-04T13:09:12.741Z,77.04
2022-12-04T13:11:43.864Z,76.74
2022-12-04T13:14:15.127Z,76.82
2022-12-04T13:16:50.158Z,77.04
2022-12-04T13:19:27.581Z,76.86
2022-12-04T13:22:14.582Z,76.98
2022-12-04T13:25:20.340Z,76.76
2022-12-04T13:28:16.491Z,76.82
2022-12-04T13:31:02.467Z,76.68
2022-12-04T13:33:52.617Z,77.04
2022-12-04T13:36:47.068Z,76.89
2022-12-04T13:39:22.524Z,76.92
2022-12-04T13:42:00.732Z,76.78
2022-12-04T13:44:32.444Z,77.16
2022-12-04T13:47:13.274Z,77.02
2022-12-04T13:49:46.522Z,77.06
2022-12-04T13:52:41.210Z,77.20
2022-12-04T13:55:36.544Z,77.17
2022-12-04T13:58:14.314Z,76.94
2022-12-04T14:00:44.918Z,77.16
2022-12-04T14:03:33.697Z,76.84
2022-12-04T14:06:20.806Z,76.84
2022-12-04T14:08:55.404Z,77.21
2022-12-04T14:11:25.473Z,77.06
2022-12-04T14:13:57.505Z,76.90
2022-12-04T14:16:41.388Z,77.34
2022-12-04T14:19:28.810Z,77.14
2022-12-04T14:21:57.859Z,77.02
2022-12-04T14:24:31.512Z,77.04
2022-12-04T14:27:15.845Z,77.15
2022-12-04T14:29:53.798Z,77.23
2022-12-04T14:32:36.196Z,77.07
2022-12-04T14:35:05.802Z,77.29
2022-12-04T14:37:41.664Z,76.84
2022-12-04T14:40:26.295Z,77.11
2022-12-04T14:42:55.984Z,77.35
2022-12-04T14:45:50.811Z,77.09
2022-12-04T14:48:33.769Z,77.27
2022-12-04T14:51:34.011Z,77.32
2022-12-04T14:54:27.785Z,77.08
2022-12-04T14:57:01.847Z,76.84
2022-12-04T14:59:52.131Z,76.81
2022-12-04T15:02:28.688Z,76.81
2022-12-04T15:04:58.545Z,77.02
2022-12-04T15:07:32.196Z,76.76
2022-12-04T15:10:22.517Z,76.85
2022-12-04T15:12:54.181Z,77.14
2022-12-04T15:15:29.562Z,77.25
2022-12-04T15:18:12.348Z,76.96
2022-12-04T15:20:50.000Z,77.16
2022-12-04T15:23:18.750Z,76.95
2022-12-04T15:25:51.460Z,77.17
2022-12-04T15:28:32.260Z,76.83
2022-12-04T15:31:04.210Z,76.83
2022-12-04T15:33:39.474Z,77.02
2022-12-04T15:36:16.032Z,77.24
2022-12-04T15:38:55.326Z,77.14
2022-12-04T15:41:35.226Z,76.81
2022-12-04T15:44:25.427Z,76.95
2022-12-04T15:46:56.817Z,77.31
2022-12-04T15:49:28.673Z,77.19
2022-12-04T15:52:11.617Z,77.26
2022-12-04T15:54:44.977Z,77.01
2022-12-04T15:57:20.247Z,77.02
2022-12-04T15:59:52.922Z,76.85
2022-12-04T16:02:34.161Z,76.95
2022-12-04T16:05:36.162Z,76.96
2022-12-04T16:08:23.612Z,77.21
2022-12-04T16:11:00.179Z,76.82
2022-12-04T16:13:35.064Z,76.95
2022-12-04T16:16:12.869Z,76.95
2022-12-04T16:18:43.743Z,76.96
2022-12-04T16:21:19.306Z,77.15
2022-12-04T16:23:48.716Z,77.24
2022-12-04T16:26:19.598Z,77.21
2022-12-04T16:28:48.568Z,76.84
2022-12-04T16:31:20.304Z,77.27
2022-12-04T16:33:49.211Z,77.29
2022-12-04T16:36:18.385Z,77.30
2022-12-04T16:38:47.495Z,77.25
2022-12-04T16:41:18.558Z,77.24
2022-12-04T16:43:55.839Z,77.04
2022-12-04T16:46:26.317Z,76.98
2022-12-04T16:48:55.608Z,77.04
2022-12-04T16:51:26.660Z,77.01
2022-12-04T16:53:56.032Z,77.18
2022-12-04T16:56:25.082Z,77.08
2022-12-04T16:58:54.018Z,77.39
2022-12-04T17:01:27.313Z,76.91
2022-12-04T17:03:56.666Z,77.27
2022-12-04T17:06:25.542Z,76.87
2022-12-04T17:08:54.402Z,76.83
2022-12-04T17:11:23.310Z,76.92
2022-12-04T17:13:52.185Z,77.05
2022-12-04T17:16:21.467Z,77.03
2022-12-04T17:18:50.331Z,77.01
2022-12-04T17:21:19.270Z,76.94
2022-12-04T17:23:48.103Z,77.29
2022-12-04T17:26:17.007Z,76.92
2022-12-04T17:28:45.888Z,76.96
2022-12-04T17:31:26.567Z,77.06
2022-12-04T17:33:57.593Z,76.96
2022-12-04T17:36:28.242Z,76.58
2022-12-04T17:38:59.647Z,76.95
2022-12-04T17:41:29.142Z,76.93
2022-12-04T17:44:01.355Z,77.02
2022-12-04T17:46:30.434Z,76.98
2022-12-04T17:49:03.908Z,76.99
2022-12-04T17:51:36.875Z,76.98
2022-12-04T17:54:06.569Z,77.06
2022-12-04T17:56:35.358Z,76.82
2022-12-04T17:59:05.347Z,76.66
2022-12-04T18:01:34.993Z,76.87
2022-12-04T18:04:06.908Z,76.93
2022-12-04T18:06:41.728Z,76.94
2022-12-04T18:09:13.373Z,77.04
2022-12-04T18:11:44.277Z,76.71
2022-12-04T18:14:18.224Z,76.68
2022-12-04T18:16:53.466Z,76.57
2022-12-04T18:19:25.377Z,76.83
2022-12-04T18:21:55.293Z,76.78
2022-12-04T18:24:25.262Z,76.84
2022-12-04T18:26:54.219Z,76.70
2022-12-04T18:29:26.110Z,76.70
2022-12-04T18:31:55.952Z,76.66
2022-12-04T18:34:25.040Z,76.56
2022-12-04T18:36:53.979Z,76.75
2022-12-04T18:39:25.052Z,76.50
2022-12-04T18:41:57.153Z,76.78
2022-12-04T18:44:26.704Z,76.98
2022-12-04T18:46:55.551Z,76.79
2022-12-04T18:49:24.587Z,76.78
2022-12-04T18:51:53.409Z,76.52
2022-12-04T18:54:24.104Z,76.44
2022-12-04T18:56:53.467Z,76.28
2022-12-04T18:59:27.398Z,76.59
2022-12-04T19:01:57.189Z,76.41
2022-12-04T19:04:26.695Z,76.36
2022-12-04T19:06:56.892Z,76.48
2022-12-04T19:09:54.294Z,76.21
2022-12-04T19:12:18.140Z,76.46
2022-12-04T19:14:46.977Z,76.58
2022-12-04T19:17:16.471Z,76.39
2022-12-04T19:19:45.331Z,76.39
2022-12-04T19:22:14.438Z,76.56
2022-12-04T19:24:43.290Z,76.36
2022-12-04T19:27:12.667Z,76.42
2022-12-04T19:29:43.620Z,76.34
2022-12-04T19:32:12.941Z,76.60
2022-12-04T19:34:41.896Z,76.47
2022-12-04T19:37:10.765Z,76.43
2022-12-04T19:39:39.822Z,76.66
2022-12-04T19:42:09.045Z,76.94
2022-12-04T19:44:53.535Z,76.55
2022-12-04T19:47:22.439Z,76.48
2022-12-04T19:49:51.284Z,76.69
2022-12-04T19:52:20.166Z,76.76
2022-12-04T19:54:49.224Z,76.78
2022-12-04T19:57:18.106Z,76.40
2022-12-04T19:59:47.150Z,76.66
2022-12-04T20:02:17.020Z,76.38
2022-12-04T20:04:47.882Z,76.63
2022-12-04T20:07:16.705Z,76.51
2022-12-04T20:09:52.061Z,76.47
2022-12-04T20:12:21.612Z,76.80
2022-12-04T20:14:50.415Z,76.96
2022-12-04T20:17:19.252Z,76.95
2022-12-04T20:19:48.043Z,76.54
2022-12-04T20:22:16.868Z,76.75
2022-12-04T20:24:45.757Z,77.10
2022-12-04T20:27:14.773Z,76.70
2022-12-04T20:29:43.702Z,76.80
2022-12-04T20:32:12.581Z,76.66
2022-12-04T20:34:43.764Z,77.04
2022-12-04T20:37:13.135Z,77.00
2022-12-04T20:39:42.306Z,76.80
2022-12-04T20:42:11.301Z,77.02
2022-12-04T20:44:40.143Z,76.97
2022-12-04T20:47:08.918Z,77.04
2022-12-04T20:49:37.767Z,77.09
2022-12-04T20:52:06.601Z,77.01
2022-12-04T20:54:41.069Z,77.27
2022-12-04T20:57:11.129Z,77.25
2022-12-04T20:59:40.396Z,77.29
2022-12-04T21:02:12.425Z,76.93
2022-12-04T21:04:41.996Z,77.50
2022-12-04T21:07:10.794Z,77.00
2022-12-04T21:09:40.091Z,77.15
2022-12-04T21:12:29.188Z,76.98
2022-12-04T21:15:16.711Z,77.34
2022-12-04T21:18:05.649Z,76.99
2022-12-04T21:20:34.733Z,77.26
2022-12-04T21:23:03.610Z,77.25
2022-12-04T21:25:32.472Z,77.06
2022-12-04T21:28:01.503Z,77.36
2022-12-04T21:30:30.290Z,77.13
2022-12-04T21:32:59.170Z,77.47
2022-12-04T21:35:29.498Z,77.09
2022-12-04T21:37:58.420Z,77.25
2022-12-04T21:40:27.283Z,77.17
2022-12-04T21:42:56.114Z,77.20
2022-12-04T21:45:24.939Z,77.25
2022-12-04T21:47:53.855Z,77.14
2022-12-04T21:50:22.854Z,77.43
2022-12-04T21:52:54.673Z,77.51
2022-12-04T21:55:23.569Z,77.24
2022-12-04T21:57:52.548Z,77.32
2022-12-04T22:00:22.294Z,77.24
2022-12-04T22:02:51.483Z,77.26
2022-12-04T22:05:20.441Z,77.27
2022-12-04T22:07:49.341Z,77.29
2022-12-04T22:10:19.101Z,77.43
2022-12-04T22:12:50.368Z,77.34
2022-12-04T22:15:20.128Z,77.26
2022-12-04T22:17:48.950Z,77.29
2022-12-04T22:20:18.431Z,77.13
2022-12-04T22:22:47.318Z,77.27
2022-12-04T22:25:16.169Z,77.37
2022-12-04T22:27:45.039Z,77.27
2022-12-04T22:30:14.418Z,77.19
2022-12-04T22:32:43.296Z,77.60
2022-12-04T22:35:12.124Z,77.74
2022-12-04T22:37:44.356Z,77.23
2022-12-04T22:40:15.414Z,77.35
2022-12-04T22:42:44.658Z,77.68
2022-12-04T22:45:13.611Z,77.67
2022-12-04T22:47:42.682Z,77.74
2022-12-04T22:50:12.839Z,77.34
2022-12-04T22:52:41.752Z,77.73
2022-12-04T22:55:10.581Z,77.60
2022-12-04T22:57:39.441Z,77.48
2022-12-04T23:00:10.149Z,77.68
2022-12-04T23:02:39.272Z,77.36
2022-12-04T23:05:08.536Z,77.73
2022-12-04T23:07:38.055Z,77.79
2022-12-04T23:10:07.823Z,77.92
2022-12-04T23:12:36.798Z,77.92
2022-12-04T23:15:06.096Z,77.97
2022-12-04T23:17:35.598Z,77.78
2022-12-04T23:20:04.878Z,78.12
2022-12-04T23:22:33.957Z,77.90
2022-12-04T23:25:02.996Z,78.04
2022-12-04T23:27:33.118Z,78.00
2022-12-04T23:30:01.915Z,78.14
2022-12-04T23:32:32.468Z,78.08
2022-12-04T23:35:01.357Z,78.00
2022-12-04T23:37:30.382Z,77.93
2022-12-04T23:39:59.499Z,78.25
2022-12-04T23:42:32.731Z,77.94
2022-12-04T23:45:01.622Z,78.38
2022-12-04T23:47:32.236Z,78.30
2022-12-04T23:50:01.267Z,78.10
2022-12-04T23:52:30.398Z,78.04
2022-12-04T23:54:59.401Z,78.26
2022-12-04T23:57:30.798Z,78.34
2022-12-04T23:59:59.879Z,78.52
